createdAt,value
2022-11-25T00:00:17.734Z,10.16
2022-11-25T00:03:44.467Z,10.10
2022-11-25T00:06:47.870Z,9.85
2022-11-25T00:09:51.550Z,10.04
2022-11-25T00:12:55.172Z,10.02
2022-11-25T00:16:02.927Z,10.02
2022-11-25T00:19:08.023Z,10.05
2022-11-25T00:22:11.736Z,9.92
2022-11-25T00:25:15.584Z,10.14
2022-11-25T00:28:19.469Z,10.22
2022-11-25T00:31:25.245Z,10.31
2022-11-25T00:34:30.601Z,10.19
2022-11-25T00:37:33.917Z,10.19
2022-11-25T00:40:37.585Z,10.24
2022-11-25T00:43:58.239Z,10.26
2022-11-25T00:47:02.456Z,10.29
2022-11-25T00:50:08.942Z,10.31
2022-11-25T00:53:12.626Z,10.30
2022-11-25T00:56:16.663Z,10.32
2022-11-25T00:59:20.437Z,10.35
2022-11-25T01:02:24.286Z,10.36
2022-11-25T01:05:29.540Z,10.40
2022-11-25T01:08:33.172Z,10.39
2022-11-25T01:11:36.937Z,10.21
2022-11-25T01:14:40.423Z,10.24
2022-11-25T01:17:44.108Z,10.19
2022-11-25T01:20:50.940Z,10.30
2022-11-25T01:23:55.120Z,10.21
2022-11-25T01:26:58.522Z,10.26
2022-11-25T01:30:02.357Z,10.31
2022-11-25T01:33:05.756Z,10.13
2022-11-25T01:36:13.141Z,10.16
2022-11-25T01:39:18.981Z,10.29
2022-11-25T01:42:22.830Z,10.20
2022-11-25T01:45:37.638Z,10.21
2022-11-25T01:48:45.587Z,10.24
2022-11-25T01:51:55.128Z,10.20
2022-11-25T01:55:03.172Z,10.31
2022-11-25T01:58:10.686Z,10.36
2022-11-25T02:01:17.139Z,10.44
2022-11-25T02:04:23.466Z,10.39
2022-11-25T02:07:34.218Z,10.17
2022-11-25T02:10:37.877Z,10.25
2022-11-25T02:13:42.180Z,10.32
2022-11-25T02:16:45.612Z,10.08
2022-11-25T02:20:02.429Z,9.94
2022-11-25T02:23:16.200Z,9.95
2022-11-25T02:26:23.404Z,10.22
2022-11-25T02:29:28.685Z,10.25
2022-11-25T02:32:32.512Z,10.33
2022-11-25T02:35:39.630Z,10.21
2022-11-25T02:38:46.379Z,10.25
2022-11-25T02:41:57.258Z,10.15
2022-11-25T02:45:01.250Z,10.29
2022-11-25T02:48:05.303Z,10.27
2022-11-25T02:51:12.022Z,10.35
2022-11-25T02:54:17.094Z,10.36
2022-11-25T02:57:22.304Z,10.45
2022-11-25T03:00:44.990Z,10.47
2022-11-25T03:03:49.386Z,10.35
2022-11-25T03:06:52.831Z,10.38
2022-11-25T03:09:57.144Z,10.35
2022-11-25T03:13:03.006Z,10.36
2022-11-25T03:16:07.399Z,10.41
2022-11-25T03:19:10.903Z,10.43
2022-11-25T03:22:14.751Z,10.50
2022-11-25T03:25:18.920Z,10.44
2022-11-25T03:28:27.483Z,10.25
2022-11-25T03:31:31.165Z,10.37
2022-11-25T03:34:35.194Z,10.35
2022-11-25T03:37:39.725Z,10.42
2022-11-25T03:40:44.556Z,10.43
2022-11-25T03:43:50.390Z,10.40
2022-11-25T03:46:54.092Z,10.36
2022-11-25T03:49:57.562Z,10.36
2022-11-25T03:53:01.305Z,10.25
2022-11-25T03:56:05.105Z,10.26
2022-11-25T03:59:10.167Z,10.21
2022-11-25T04:02:15.320Z,10.22
2022-11-25T04:05:19.123Z,10.32
2022-11-25T04:08:22.583Z,10.39
2022-11-25T04:11:46.576Z,10.41
2022-11-25T04:14:50.786Z,10.45
2022-11-25T04:17:55.043Z,10.48
2022-11-25T04:20:58.429Z,10.43
2022-11-25T04:24:02.427Z,10.47
2022-11-25T04:27:06.126Z,10.46
2022-11-25T04:30:12.380Z,10.49
2022-11-25T04:33:17.945Z,10.51
2022-11-25T04:36:23.467Z,10.50
2022-11-25T04:39:27.028Z,10.51
2022-11-25T04:42:39.594Z,10.53
2022-11-25T04:46:13.019Z,10.52
2022-11-25T04:49:16.151Z,10.55
2022-11-25T04:52:19.489Z,10.43
2022-11-25T04:55:25.210Z,10.27
2022-11-25T04:58:46.014Z,10.32
2022-11-25T05:01:51.149Z,10.26
2022-11-25T05:05:02.956Z,10.06
2022-11-25T05:08:07.606Z,10.02
2022-11-25T05:11:29.513Z,9.91
2022-11-25T05:14:34.885Z,9.84
2022-11-25T05:17:40.692Z,10.03
2022-11-25T05:20:45.193Z,10.17
2022-11-25T05:23:55.664Z,10.08
2022-11-25T05:27:00.435Z,10.07
2022-11-25T05:30:04.156Z,10.07
2022-11-25T05:33:09.347Z,10.07
2022-11-25T05:36:12.760Z,9.93
2022-11-25T05:39:22.406Z,9.97
2022-11-25T05:42:51.818Z,9.69
2022-11-25T05:45:56.962Z,9.80
2022-11-25T05:49:02.644Z,9.84
2022-11-25T05:52:06.725Z,9.90
2022-11-25T05:55:17.090Z,9.82
2022-11-25T05:58:23.324Z,9.87
2022-11-25T06:01:30.078Z,9.81
2022-11-25T06:04:35.368Z,9.83
2022-11-25T06:07:39.825Z,9.94
2022-11-25T06:10:44.395Z,9.67
2022-11-25T06:13:48.149Z,9.84
2022-11-25T06:16:52.332Z,9.90
2022-11-25T06:20:10.305Z,9.86
2022-11-25T06:23:14.166Z,9.96
2022-11-25T06:26:19.921Z,9.95
2022-11-25T06:29:24.209Z,9.86
2022-11-25T06:32:28.821Z,9.86
2022-11-25T06:35:53.969Z,9.74
2022-11-25T06:38:57.465Z,9.89
2022-11-25T06:42:01.228Z,9.87
2022-11-25T06:45:05.195Z,9.91
2022-11-25T06:48:09.030Z,9.86
2022-11-25T06:51:16.421Z,9.82
2022-11-25T06:54:20.254Z,9.91
2022-11-25T06:57:23.835Z,10.00
2022-11-25T07:00:27.639Z,10.02
2022-11-25T07:03:33.610Z,10.06
2022-11-25T07:06:38.766Z,10.20
2022-11-25T07:09:42.283Z,10.06
2022-11-25T07:12:46.056Z,10.09
2022-11-25T07:16:09.253Z,9.85
2022-11-25T07:19:14.530Z,10.10
2022-11-25T07:22:19.494Z,10.25
2022-11-25T07:25:26.608Z,10.23
2022-11-25T07:28:34.390Z,10.27
2022-11-25T07:31:40.074Z,10.38
2022-11-25T07:34:43.613Z,10.28
2022-11-25T07:37:49.015Z,10.43
2022-11-25T07:40:52.390Z,10.54
2022-11-25T07:43:57.720Z,10.63
2022-11-25T07:47:02.499Z,10.69
2022-11-25T07:50:07.363Z,10.69
2022-11-25T07:53:12.137Z,10.57
2022-11-25T07:56:17.336Z,10.58
2022-11-25T07:59:23.946Z,10.61
2022-11-25T08:02:27.828Z,10.52
2022-11-25T08:05:33.561Z,10.46
2022-11-25T08:08:40.457Z,10.67
2022-11-25T08:11:44.050Z,10.74
2022-11-25T08:14:47.819Z,10.83
2022-11-25T08:17:52.731Z,10.91
2022-11-25T08:21:01.394Z,10.81
2022-11-25T08:24:06.795Z,10.87
2022-11-25T08:27:10.812Z,10.94
2022-11-25T08:30:14.643Z,11.05
2022-11-25T08:33:18.441Z,11.06
2022-11-25T08:36:22.483Z,11.08
2022-11-25T08:39:57.592Z,11.07
2022-11-25T08:42:51.147Z,11.12
2022-11-25T08:45:55.050Z,11.26
2022-11-25T08:48:58.515Z,11.07
2022-11-25T08:52:02.260Z,11.12
2022-11-25T08:55:09.116Z,11.15
2022-11-25T08:58:13.250Z,11.27
2022-11-25T09:01:17.946Z,11.23
2022-11-25T09:04:21.988Z,11.23
2022-11-25T09:07:30.494Z,11.30
2022-11-25T09:10:36.485Z,11.29
2022-11-25T09:13:40.662Z,11.24
2022-11-25T09:16:44.714Z,10.99
2022-11-25T09:19:48.196Z,11.09
2022-11-25T09:22:51.991Z,10.97
2022-11-25T09:25:58.683Z,10.96
2022-11-25T09:29:02.631Z,10.79
2022-11-25T09:32:06.624Z,10.89
2022-11-25T09:35:10.918Z,10.53
2022-11-25T09:38:14.398Z,10.70
2022-11-25T09:42:08.876Z,10.67
2022-11-25T09:45:38.678Z,10.67
2022-11-25T09:48:58.331Z,10.90
2022-11-25T09:52:13.701Z,10.86
2022-11-25T09:55:20.592Z,11.00
2022-11-25T09:58:33.960Z,11.03
2022-11-25T10:01:46.720Z,10.72
2022-11-25T10:04:55.055Z,10.98
2022-11-25T10:08:04.916Z,11.07
2022-11-25T10:11:19.783Z,11.19
2022-11-25T10:14:32.401Z,11.27
2022-11-25T10:17:43.348Z,11.23
2022-11-25T10:20:51.350Z,11.19
2022-11-25T10:23:54.874Z,10.89
2022-11-25T10:27:03.617Z,11.01
2022-11-25T10:30:18.070Z,11.02
2022-11-25T10:33:23.849Z,11.01
2022-11-25T10:36:31.512Z,11.01
2022-11-25T10:39:36.421Z,11.13
2022-11-25T10:42:39.949Z,11.05
2022-11-25T10:45:53.824Z,10.64
2022-11-25T10:49:01.833Z,10.89
2022-11-25T10:52:12.277Z,11.15
2022-11-25T10:55:18.371Z,11.00
2022-11-25T10:58:29.569Z,11.13
2022-11-25T11:01:55.536Z,11.00
2022-11-25T11:05:01.808Z,10.97
2022-11-25T11:08:17.430Z,10.76
2022-11-25T11:11:23.204Z,11.10
2022-11-25T11:14:29.984Z,11.04
2022-11-25T11:17:37.408Z,11.10
2022-11-25T11:20:47.232Z,11.24
2022-11-25T11:23:53.934Z,11.44
2022-11-25T11:27:05.061Z,11.34
2022-11-25T11:30:16.657Z,11.65
2022-11-25T11:33:34.266Z,11.59
2022-11-25T11:36:53.231Z,11.60
2022-11-25T11:40:16.090Z,11.47
2022-11-25T11:43:35.660Z,11.69
2022-11-25T11:46:52.345Z,11.86
2022-11-25T11:50:24.519Z,11.68
2022-11-25T11:53:32.771Z,11.74
2022-11-25T11:56:41.160Z,11.79
2022-11-25T11:59:50.168Z,11.91
2022-11-25T12:03:02.285Z,11.82
2022-11-25T12:06:10.888Z,11.84
2022-11-25T12:09:20.248Z,11.54
2022-11-25T12:12:33.637Z,11.52
2022-11-25T12:15:45.134Z,11.65
2022-11-25T12:18:54.462Z,11.68
2022-11-25T12:22:07.498Z,11.60
2022-11-25T12:25:19.193Z,11.52
2022-11-25T12:28:30.516Z,11.63
2022-11-25T12:31:40.451Z,11.81
2022-11-25T12:34:55.054Z,11.94
2022-11-25T12:38:06.446Z,11.93
2022-11-25T12:41:21.960Z,11.91
2022-11-25T12:44:32.478Z,11.99
2022-11-25T12:47:36.391Z,11.56
2022-11-25T12:50:55.829Z,11.43
2022-11-25T12:54:11.807Z,11.39
2022-11-25T12:57:53.628Z,11.49
2022-11-25T13:01:25.787Z,11.34
2022-11-25T13:05:32.754Z,11.31
2022-11-25T13:08:52.997Z,11.38
2022-11-25T13:12:12.987Z,11.53
2022-11-25T13:15:30.746Z,11.41
2022-11-25T13:18:38.791Z,11.58
2022-11-25T13:22:00.661Z,11.34
2022-11-25T13:25:04.308Z,11.44
2022-11-25T13:28:29.909Z,11.38
2022-11-25T13:31:35.850Z,11.56
2022-11-25T13:34:39.882Z,11.40
2022-11-25T13:37:43.694Z,11.48
2022-11-25T13:40:57.892Z,11.54
2022-11-25T13:44:08.211Z,11.52
2022-11-25T13:47:33.094Z,11.48
2022-11-25T13:51:03.363Z,11.61
2022-11-25T13:54:03.877Z,11.66
2022-11-25T13:57:30.530Z,11.68
2022-11-25T14:00:51.296Z,11.70
2022-11-25T14:04:00.415Z,11.55
2022-11-25T14:07:20.661Z,11.58
2022-11-25T14:10:45.119Z,11.13
2022-11-25T14:14:05.686Z,11.25
2022-11-25T14:17:27.622Z,11.42
2022-11-25T14:20:42.497Z,11.45
2022-11-25T14:23:59.155Z,11.45
2022-11-25T14:27:04.567Z,11.51
2022-11-25T14:30:10.449Z,11.54
2022-11-25T14:33:20.311Z,11.55
2022-11-25T14:36:29.148Z,11.62
2022-11-25T14:39:37.692Z,11.57
2022-11-25T14:42:45.088Z,11.58
2022-11-25T14:45:49.107Z,11.52
2022-11-25T14:48:59.282Z,11.54
2022-11-25T14:52:03.052Z,11.54
2022-11-25T14:55:08.163Z,11.48
2022-11-25T14:58:13.740Z,11.41
2022-11-25T15:01:20.235Z,11.34
2022-11-25T15:04:26.634Z,11.30
2022-11-25T15:07:31.524Z,11.16
2022-11-25T15:10:42.176Z,10.89
2022-11-25T15:13:47.810Z,10.79
2022-11-25T15:16:52.065Z,10.82
2022-11-25T15:20:02.688Z,10.47
2022-11-25T15:23:07.181Z,10.41
2022-11-25T15:26:20.589Z,10.35
2022-11-25T15:29:24.830Z,10.37
2022-11-25T15:32:30.476Z,10.21
2022-11-25T15:35:35.532Z,10.02
2022-11-25T15:38:42.882Z,10.08
2022-11-25T15:41:50.190Z,10.07
2022-11-25T15:44:58.055Z,9.70
2022-11-25T15:48:03.304Z,9.42
2022-11-25T15:51:21.752Z,9.43
2022-11-25T15:54:30.330Z,9.51
2022-11-25T15:57:37.450Z,9.18
2022-11-25T16:00:41.839Z,9.27
2022-11-25T16:03:46.035Z,8.94
2022-11-25T16:06:56.508Z,8.72
2022-11-25T16:10:00.003Z,8.47
2022-11-25T16:13:37.441Z,8.39
2022-11-25T16:16:41.013Z,8.38
2022-11-25T16:19:48.821Z,8.28
2022-11-25T16:22:53.835Z,8.15
2022-11-25T16:26:00.037Z,8.13
2022-11-25T16:29:15.315Z,8.14
2022-11-25T16:32:20.936Z,8.13
2022-11-25T16:35:24.697Z,7.98
2022-11-25T16:38:29.849Z,8.19
2022-11-25T16:41:33.413Z,8.02
2022-11-25T16:44:38.424Z,7.69
2022-11-25T16:47:41.854Z,7.40
2022-11-25T16:50:45.806Z,7.05
2022-11-25T16:53:51.458Z,6.92
2022-11-25T16:56:56.301Z,7.16
2022-11-25T17:00:02.412Z,7.36
2022-11-25T17:03:07.475Z,7.55
2022-11-25T17:06:21.629Z,7.09
2022-11-25T17:09:28.289Z,6.86
2022-11-25T17:12:35.049Z,6.80
2022-11-25T17:15:39.577Z,7.03
2022-11-25T17:18:43.329Z,6.98
2022-11-25T17:21:47.197Z,6.87
2022-11-25T17:24:52.800Z,7.22
2022-11-25T17:27:56.790Z,7.24
2022-11-25T17:31:01.080Z,7.38
2022-11-25T17:34:04.844Z,7.29
2022-11-25T17:37:14.801Z,7.25
2022-11-25T17:40:20.543Z,7.45
2022-11-25T17:43:24.035Z,7.48
2022-11-25T17:46:29.613Z,7.39
2022-11-25T17:49:33.247Z,7.33
2022-11-25T17:52:36.999Z,7.06
2022-11-25T17:55:43.239Z,7.10
2022-11-25T17:58:47.252Z,7.06
2022-11-25T18:01:51.031Z,7.19
2022-11-25T18:04:55.816Z,7.09
2022-11-25T18:07:59.726Z,6.86
2022-11-25T18:11:07.811Z,6.48
2022-11-25T18:14:14.590Z,6.62
2022-11-25T18:17:19.901Z,6.76
2022-11-25T18:20:25.673Z,6.98
2022-11-25T18:23:29.505Z,7.10
2022-11-25T18:26:38.213Z,7.01
2022-11-25T18:29:42.170Z,7.08
2022-11-25T18:32:45.906Z,7.11
2022-11-25T18:35:49.779Z,7.06
2022-11-25T18:38:53.932Z,6.99
2022-11-25T18:42:00.482Z,6.98
2022-11-25T18:45:04.483Z,6.92
2022-11-25T18:48:14.775Z,6.73
2022-11-25T18:51:18.275Z,6.69
2022-11-25T18:54:22.300Z,6.61
2022-11-25T18:57:28.057Z,6.34
2022-11-25T19:00:33.281Z,6.08
2022-11-25T19:03:37.473Z,6.22
2022-11-25T19:06:41.822Z,6.05
2022-11-25T19:09:47.634Z,6.20
2022-11-25T19:12:57.159Z,6.21
2022-11-25T19:16:12.951Z,6.19
2022-11-25T19:19:18.417Z,6.26
2022-11-25T19:22:22.823Z,6.37
2022-11-25T19:25:27.086Z,6.05
2022-11-25T19:28:33.227Z,6.10
2022-11-25T19:31:39.569Z,5.93
2022-11-25T19:34:47.718Z,5.70
2022-11-25T19:37:54.648Z,5.57
2022-11-25T19:40:58.537Z,5.73
2022-11-25T19:44:03.940Z,5.44
2022-11-25T19:47:15.093Z,5.60
2022-11-25T19:50:23.500Z,5.64
2022-11-25T19:53:33.555Z,5.67
2022-11-25T19:56:40.119Z,5.79
2022-11-25T19:59:45.888Z,5.78
2022-11-25T20:02:51.998Z,5.38
2022-11-25T20:05:56.036Z,5.61
2022-11-25T20:09:06.434Z,5.63
2022-11-25T20:12:22.013Z,5.41
2022-11-25T20:15:28.642Z,5.27
2022-11-25T20:18:32.323Z,5.37
2022-11-25T20:21:39.899Z,5.44
2022-11-25T20:24:44.394Z,5.31
2022-11-25T20:27:48.439Z,5.16
2022-11-25T20:30:53.976Z,5.29
2022-11-25T20:33:58.354Z,5.56
2022-11-25T20:37:02.524Z,5.13
2022-11-25T20:40:16.279Z,5.07
2022-11-25T20:43:31.794Z,5.05
2022-11-25T20:46:36.967Z,5.23
2022-11-25T20:49:40.358Z,5.29
2022-11-25T20:52:44.798Z,5.59
2022-11-25T20:55:50.300Z,5.44
2022-11-25T20:58:54.133Z,5.29
2022-11-25T21:01:59.182Z,5.53
2022-11-25T21:05:02.931Z,5.46
2022-11-25T21:08:14.530Z,5.71
2022-11-25T21:11:20.180Z,5.83
2022-11-25T21:14:23.898Z,5.75
2022-11-25T21:17:29.200Z,5.58
2022-11-25T21:20:32.641Z,5.73
2022-11-25T21:23:38.612Z,5.56
2022-11-25T21:26:42.144Z,5.40
2022-11-25T21:29:46.878Z,5.49
2022-11-25T21:32:54.806Z,5.53
2022-11-25T21:35:58.527Z,5.39
2022-11-25T21:39:27.809Z,5.22
2022-11-25T21:42:33.614Z,5.33
2022-11-25T21:45:37.073Z,5.34
2022-11-25T21:48:42.166Z,5.28
2022-11-25T21:51:45.625Z,5.43
2022-11-25T21:54:49.308Z,5.52
2022-11-25T21:57:52.900Z,5.33
2022-11-25T22:00:58.600Z,5.50
2022-11-25T22:04:03.486Z,5.14
2022-11-25T22:07:07.304Z,5.44
2022-11-25T22:10:11.290Z,5.31
2022-11-25T22:13:18.315Z,5.41
2022-11-25T22:16:27.380Z,5.19
2022-11-25T22:19:33.026Z,4.83
2022-11-25T22:22:36.401Z,5.02
2022-11-25T22:25:40.124Z,5.06
2022-11-25T22:28:43.602Z,5.10
2022-11-25T22:31:48.465Z,5.09
2022-11-25T22:34:53.347Z,4.93
2022-11-25T22:37:57.128Z,5.05
2022-11-25T22:41:02.967Z,5.20
2022-11-25T22:44:07.639Z,5.25
2022-11-25T22:47:20.457Z,5.38
2022-11-25T22:50:29.063Z,5.04
2022-11-25T22:53:32.861Z,5.08
2022-11-25T22:56:36.551Z,5.32
2022-11-25T22:59:40.164Z,5.46
2022-11-25T23:02:44.043Z,5.57
2022-11-25T23:05:51.224Z,5.55
2022-11-25T23:08:54.929Z,5.48
2022-11-25T23:11:58.337Z,5.12
2022-11-25T23:15:04.290Z,5.05
2022-11-25T23:18:14.950Z,5.39
2022-11-25T23:21:24.818Z,5.44
2022-11-25T23:24:28.320Z,4.93
2022-11-25T23:27:32.102Z,5.29
2022-11-25T23:30:38.754Z,5.12
2022-11-25T23:33:47.310Z,4.99
2022-11-25T23:36:52.591Z,4.99
2022-11-25T23:39:56.322Z,5.35
2022-11-25T23:42:59.706Z,5.34
2022-11-25T23:46:03.445Z,5.40
2022-11-25T23:49:11.518Z,5.17
2022-11-25T23:52:22.718Z,5.18
2022-11-25T23:55:30.357Z,4.91
2022-11-25T23:58:34.207Z,5.17
